createdAt,value
2019-03-22T00:00:03.310Z,70
2019-03-22T00:01:03.243Z,70
2019-03-22T00:02:02.884Z,70
2019-03-22T00:03:03.230Z,70
2019-03-22T00:04:03.237Z,71
2019-03-22T00:05:02.926Z,71
2019-03-22T00:06:02.991Z,71
2019-03-22T00:07:02.979Z,71
2019-03-22T00:08:03.323Z,71
2019-03-22T00:09:02.991Z,71
2019-03-22T00:10:02.859Z,71
2019-03-22T00:11:02.767Z,71
2019-03-22T00:12:04.639Z,71
2019-03-22T00:13:03.483Z,71
2019-03-22T00:14:03.165Z,71
2019-03-22T00:15:03.435Z,70
2019-03-22T00:16:03.151Z,70
2019-03-22T00:17:03.084Z,71
2019-03-22T00:18:02.929Z,71
2019-03-22T00:19:03.307Z,71
2019-03-22T00:20:03.011Z,71
2019-03-22T00:21:03.123Z,71
2019-03-22T00:22:03.004Z,71
2019-03-22T00:23:03.056Z,71
2019-03-22T00:24:03.073Z,71
2019-03-22T00:25:03.129Z,71
2019-03-22T00:26:03.068Z,71
2019-03-22T00:27:16.840Z,71
2019-03-22T00:28:03.063Z,71
2019-03-22T00:29:03.986Z,71
2019-03-22T00:30:04.257Z,71
2019-03-22T00:31:03.808Z,71
2019-03-22T00:32:02.912Z,71
2019-03-22T00:33:03.001Z,71
2019-03-22T00:34:02.809Z,71
2019-03-22T00:35:02.945Z,71
2019-03-22T00:36:02.944Z,71
2019-03-22T00:37:03.659Z,71
2019-03-22T00:38:03.670Z,70
2019-03-22T00:39:02.784Z,70
2019-03-22T00:40:03.680Z,70
2019-03-22T00:41:02.695Z,70
2019-03-22T00:42:03.673Z,70
2019-03-22T00:43:02.837Z,70
2019-03-22T00:44:02.978Z,71
2019-03-22T00:45:03.274Z,71
2019-03-22T00:46:02.871Z,70
2019-03-22T00:47:03.257Z,70
2019-03-22T00:48:03.046Z,70
2019-03-22T00:49:03.186Z,70
2019-03-22T00:50:02.902Z,70
2019-03-22T00:51:02.712Z,70
2019-03-22T00:52:03.055Z,70
2019-03-22T00:53:02.725Z,70
2019-03-22T00:54:04.162Z,71
2019-03-22T00:55:03.074Z,71
2019-03-22T00:56:03.409Z,71
2019-03-22T00:57:03.291Z,71
2019-03-22T00:58:02.960Z,71
2019-03-22T00:59:03.321Z,71
2019-03-22T01:00:03.688Z,71
2019-03-22T01:01:03.149Z,71
2019-03-22T01:02:03.362Z,71
2019-03-22T01:03:02.968Z,71
2019-03-22T01:04:03.165Z,71
2019-03-22T01:05:03.276Z,71
2019-03-22T01:06:02.973Z,71
2019-03-22T01:07:02.916Z,71
2019-03-22T01:08:02.909Z,71
2019-03-22T01:09:03.182Z,71
2019-03-22T01:10:02.995Z,71
2019-03-22T01:11:03.191Z,71
2019-03-22T01:12:03.177Z,71
2019-03-22T01:13:03.115Z,71
2019-03-22T01:14:03.097Z,72
2019-03-22T01:15:03.940Z,72
2019-03-22T01:16:02.958Z,72
2019-03-22T01:17:03.014Z,72
2019-03-22T01:18:03.737Z,72
2019-03-22T01:19:03.907Z,72
2019-03-22T01:20:02.980Z,72
2019-03-22T01:21:03.862Z,72
2019-03-22T01:22:03.793Z,72
2019-03-22T01:23:03.819Z,72
2019-03-22T01:24:03.684Z,72
2019-03-22T01:25:03.742Z,72
2019-03-22T01:26:03.878Z,72
2019-03-22T01:27:03.515Z,72
2019-03-22T01:28:03.721Z,72
2019-03-22T01:29:04.272Z,72
2019-03-22T01:30:03.432Z,72
2019-03-22T01:31:03.820Z,72
2019-03-22T01:32:03.466Z,72
2019-03-22T01:33:03.449Z,73
2019-03-22T01:34:03.433Z,73
2019-03-22T01:35:03.738Z,73
2019-03-22T01:36:03.802Z,73
2019-03-22T01:37:03.613Z,73
2019-03-22T01:38:03.664Z,73
2019-03-22T01:39:03.492Z,73
2019-03-22T01:40:03.731Z,73
2019-03-22T01:41:03.736Z,73
2019-03-22T01:42:03.401Z,73
2019-03-22T01:43:03.157Z,73
2019-03-22T01:44:03.510Z,73
2019-03-22T01:45:03.520Z,73
2019-03-22T01:46:02.111Z,73
2019-03-22T01:47:03.369Z,73
2019-03-22T01:48:03.159Z,73
2019-03-22T01:49:03.461Z,73
2019-03-22T01:50:03.391Z,73
2019-03-22T01:51:03.545Z,73
2019-03-22T01:52:03.490Z,73
2019-03-22T01:53:03.453Z,73
2019-03-22T01:54:03.383Z,73
2019-03-22T01:55:02.835Z,73
2019-03-22T01:56:03.287Z,73
2019-03-22T01:57:03.076Z,73
2019-03-22T01:58:03.397Z,73
2019-03-22T01:59:03.012Z,73
2019-03-22T02:00:03.454Z,73
2019-03-22T02:01:03.166Z,73
2019-03-22T02:02:03.425Z,73
2019-03-22T02:03:03.090Z,73
2019-03-22T02:04:03.075Z,73
2019-03-22T02:05:02.864Z,73
2019-03-22T02:06:02.966Z,73
2019-03-22T02:07:03.168Z,73
2019-03-22T02:08:03.040Z,73
2019-03-22T02:09:03.197Z,73
2019-03-22T02:10:03.061Z,73
2019-03-22T02:11:03.070Z,73
2019-03-22T02:12:02.794Z,74
2019-03-22T02:13:03.441Z,74
2019-03-22T02:14:02.977Z,73
2019-03-22T02:15:03.783Z,74
2019-03-22T02:16:02.926Z,74
2019-03-22T02:17:03.725Z,74
2019-03-22T02:18:02.738Z,74
2019-03-22T02:19:03.575Z,74
2019-03-22T02:20:03.982Z,74
2019-03-22T02:21:03.594Z,74
2019-03-22T02:22:03.120Z,74
2019-03-22T02:23:03.557Z,74
2019-03-22T02:24:02.921Z,74
2019-03-22T02:25:03.057Z,74
2019-03-22T02:26:03.074Z,74
2019-03-22T02:27:03.675Z,74
2019-03-22T02:28:04.785Z,74
2019-03-22T02:29:02.956Z,74
2019-03-22T02:30:03.731Z,74
2019-03-22T02:31:03.851Z,74
2019-03-22T02:32:03.858Z,74
2019-03-22T02:33:02.625Z,74
2019-03-22T02:34:03.552Z,74
2019-03-22T02:35:02.845Z,74
2019-03-22T02:36:03.473Z,74
2019-03-22T02:37:03.827Z,74
2019-03-22T02:38:03.765Z,74
2019-03-22T02:39:03.813Z,74
2019-03-22T02:40:03.530Z,74
2019-03-22T02:41:03.551Z,74
2019-03-22T02:42:03.852Z,74
2019-03-22T02:43:03.808Z,74
2019-03-22T02:44:03.871Z,74
2019-03-22T02:45:04.106Z,74
2019-03-22T02:46:02.524Z,74
2019-03-22T02:47:03.738Z,74
2019-03-22T02:48:03.592Z,74
2019-03-22T02:49:03.892Z,74
2019-03-22T02:50:20.648Z,74
2019-03-22T02:51:03.784Z,74
2019-03-22T02:52:03.756Z,74
2019-03-22T02:53:03.797Z,74
2019-03-22T02:54:03.550Z,74
2019-03-22T02:55:03.025Z,74
2019-03-22T02:56:04.069Z,74
2019-03-22T02:57:03.522Z,74
2019-03-22T02:58:21.622Z,74
2019-03-22T02:59:03.441Z,74
2019-03-22T03:00:03.662Z,75
2019-03-22T03:01:03.562Z,75
2019-03-22T03:02:03.710Z,75
2019-03-22T03:03:03.586Z,75
2019-03-22T03:04:03.617Z,75
2019-03-22T03:05:03.416Z,75
2019-03-22T03:06:03.561Z,75
2019-03-22T03:07:03.773Z,75
2019-03-22T03:08:03.330Z,75
2019-03-22T03:09:03.437Z,75
2019-03-22T03:10:03.874Z,75
2019-03-22T03:11:03.622Z,75
2019-03-22T03:12:03.722Z,75
2019-03-22T03:13:03.588Z,75
2019-03-22T03:14:03.565Z,75
2019-03-22T03:15:03.565Z,75
2019-03-22T03:16:03.659Z,75
2019-03-22T03:17:03.642Z,75
2019-03-22T03:18:03.554Z,75
2019-03-22T03:19:03.067Z,76
2019-03-22T03:20:03.432Z,76
2019-03-22T03:21:03.340Z,76
2019-03-22T03:22:03.809Z,76
2019-03-22T03:23:03.577Z,76
2019-03-22T03:24:03.783Z,76
2019-03-22T03:25:03.473Z,76
2019-03-22T03:26:03.440Z,76
2019-03-22T03:27:03.534Z,76
2019-03-22T03:28:03.708Z,76
2019-03-22T03:29:03.571Z,76
2019-03-22T03:30:03.620Z,76
2019-03-22T03:31:03.607Z,76
2019-03-22T03:32:03.035Z,76
2019-03-22T03:33:03.310Z,76
2019-03-22T03:34:03.341Z,76
2019-03-22T03:35:03.843Z,76
2019-03-22T03:36:03.569Z,76
2019-03-22T03:37:03.548Z,76
2019-03-22T03:38:03.044Z,76
2019-03-22T03:39:03.781Z,76
2019-03-22T03:40:03.279Z,76
2019-03-22T03:41:03.109Z,76
2019-03-22T03:42:03.213Z,76
2019-03-22T03:43:03.291Z,76
2019-03-22T03:44:03.475Z,76
2019-03-22T03:45:03.018Z,76
2019-03-22T03:46:03.270Z,76
2019-03-22T03:47:03.145Z,76
2019-03-22T03:48:03.139Z,76
2019-03-22T03:49:03.058Z,76
2019-03-22T03:50:03.190Z,76
2019-03-22T03:51:03.006Z,76
2019-03-22T03:52:03.188Z,76
2019-03-22T03:53:02.815Z,76
2019-03-22T03:54:02.913Z,76
2019-03-22T03:55:02.985Z,76
2019-03-22T03:56:03.906Z,76
2019-03-22T03:57:03.770Z,76
2019-03-22T03:58:03.828Z,76
2019-03-22T03:59:02.984Z,76
2019-03-22T04:00:03.770Z,77
2019-03-22T04:01:03.161Z,76
2019-03-22T04:02:03.595Z,76
2019-03-22T04:03:03.193Z,76
2019-03-22T04:04:03.715Z,76
2019-03-22T04:05:02.947Z,76
2019-03-22T04:06:04.024Z,76
2019-03-22T04:07:03.632Z,77
2019-03-22T04:08:03.795Z,77
2019-03-22T04:09:03.513Z,77
2019-03-22T04:10:02.925Z,76
2019-03-22T04:11:03.779Z,77
2019-03-22T04:12:02.936Z,76
2019-03-22T04:13:03.985Z,77
2019-03-22T04:14:03.760Z,76
2019-03-22T04:15:03.796Z,76
2019-03-22T04:16:03.781Z,77
2019-03-22T04:17:03.531Z,77
2019-03-22T04:18:03.607Z,77
2019-03-22T04:19:03.731Z,77
2019-03-22T04:20:03.647Z,77
2019-03-22T04:21:03.278Z,77
2019-03-22T04:22:03.279Z,77
2019-03-22T04:23:03.649Z,77
2019-03-22T04:24:03.443Z,77
2019-03-22T04:25:03.656Z,77
2019-03-22T04:26:03.563Z,77
2019-03-22T04:27:03.227Z,77
2019-03-22T04:28:03.353Z,77
2019-03-22T04:29:08.989Z,77
2019-03-22T04:30:03.407Z,77
2019-03-22T04:31:02.951Z,77
2019-03-22T04:32:03.355Z,77
2019-03-22T04:33:07.441Z,77
2019-03-22T04:34:03.630Z,77
2019-03-22T04:35:03.202Z,77
2019-03-22T04:36:03.429Z,77
2019-03-22T04:37:03.455Z,77
2019-03-22T04:38:03.588Z,77
2019-03-22T04:39:03.486Z,77
2019-03-22T04:40:03.517Z,77
2019-03-22T04:41:03.245Z,77
2019-03-22T04:42:03.424Z,77
2019-03-22T04:43:03.486Z,77
2019-03-22T04:44:03.301Z,77
2019-03-22T04:45:03.292Z,77
2019-03-22T04:46:03.165Z,77
2019-03-22T04:47:03.288Z,77
2019-03-22T04:48:02.980Z,77
2019-03-22T04:49:03.430Z,77
2019-03-22T04:50:03.342Z,77
2019-03-22T04:51:03.572Z,77
2019-03-22T04:52:03.306Z,77
2019-03-22T04:53:03.264Z,77
2019-03-22T04:54:03.313Z,77
2019-03-22T04:55:03.398Z,77
2019-03-22T04:56:03.322Z,77
2019-03-22T04:57:02.947Z,77
2019-03-22T04:58:03.302Z,77
2019-03-22T04:59:03.096Z,77
2019-03-22T05:00:03.485Z,77
2019-03-22T05:01:03.161Z,77
2019-03-22T05:02:03.465Z,77
2019-03-22T05:03:03.177Z,77
2019-03-22T05:04:03.165Z,77
2019-03-22T05:05:03.314Z,77
2019-03-22T05:06:03.178Z,77
2019-03-22T05:07:03.227Z,77
2019-03-22T05:08:03.240Z,77
2019-03-22T05:09:03.262Z,77
2019-03-22T05:10:03.137Z,77
2019-03-22T05:11:03.237Z,77
2019-03-22T05:12:03.188Z,77
2019-03-22T05:13:03.238Z,77
2019-03-22T05:14:03.137Z,77
2019-03-22T05:15:02.954Z,77
2019-03-22T05:16:02.979Z,77
2019-03-22T05:17:03.086Z,77
2019-03-22T05:18:03.031Z,77
2019-03-22T05:19:03.087Z,77
2019-03-22T05:20:03.390Z,77
2019-03-22T05:21:03.120Z,77
2019-03-22T05:22:03.176Z,77
2019-03-22T05:23:03.012Z,77
2019-03-22T05:24:03.230Z,77
2019-03-22T05:25:03.761Z,77
2019-03-22T05:26:03.216Z,77
2019-03-22T05:27:03.015Z,77
2019-03-22T05:28:02.780Z,77
2019-03-22T05:29:02.755Z,77
2019-03-22T05:30:03.583Z,77
2019-03-22T05:31:03.648Z,77
2019-03-22T05:32:02.825Z,77
2019-03-22T05:33:02.990Z,77
2019-03-22T05:34:03.106Z,77
2019-03-22T05:35:03.829Z,77
2019-03-22T05:36:03.512Z,77
2019-03-22T05:37:03.732Z,77
2019-03-22T05:38:03.689Z,77
2019-03-22T05:39:03.835Z,77
2019-03-22T05:40:03.328Z,77
2019-03-22T05:41:03.744Z,77
2019-03-22T05:42:03.670Z,77
2019-03-22T05:43:03.784Z,77
2019-03-22T05:44:02.626Z,77
2019-03-22T05:45:04.086Z,77
2019-03-22T05:46:03.681Z,77
2019-03-22T05:47:03.591Z,77
2019-03-22T05:48:03.565Z,77
2019-03-22T05:49:03.510Z,77
2019-03-22T05:50:03.648Z,77
2019-03-22T05:51:03.467Z,77
2019-03-22T05:52:03.478Z,77
2019-03-22T05:53:03.625Z,77
2019-03-22T05:54:03.043Z,77
2019-03-22T05:55:03.640Z,77
2019-03-22T05:56:03.458Z,77
2019-03-22T05:57:14.241Z,77
2019-03-22T05:58:03.543Z,77
2019-03-22T05:59:03.756Z,77
2019-03-22T06:00:03.589Z,77
2019-03-22T06:01:03.658Z,77
2019-03-22T06:02:03.651Z,77
2019-03-22T06:03:03.739Z,77
2019-03-22T06:04:03.458Z,77
2019-03-22T06:05:03.565Z,77
2019-03-22T06:06:03.646Z,77
2019-03-22T06:07:03.176Z,77
2019-03-22T06:08:03.642Z,77
2019-03-22T06:09:03.326Z,77
2019-03-22T06:10:03.823Z,77
2019-03-22T06:11:03.249Z,77
2019-03-22T06:12:03.569Z,77
2019-03-22T06:13:03.472Z,77
2019-03-22T06:14:03.514Z,77
2019-03-22T06:15:03.600Z,77
2019-03-22T06:16:03.477Z,77
2019-03-22T06:17:03.487Z,77
2019-03-22T06:18:03.385Z,77
2019-03-22T06:19:03.680Z,77
2019-03-22T06:20:03.481Z,77
2019-03-22T06:21:03.298Z,77
2019-03-22T06:22:03.557Z,77
2019-03-22T06:23:03.565Z,77
2019-03-22T06:24:03.138Z,77
2019-03-22T06:25:03.323Z,76
2019-03-22T06:26:03.515Z,76
2019-03-22T06:27:03.346Z,76
2019-03-22T06:28:03.549Z,76
2019-03-22T06:29:03.016Z,76
2019-03-22T06:30:03.301Z,76
2019-03-22T06:31:03.344Z,76
2019-03-22T06:32:03.144Z,76
2019-03-22T06:33:03.906Z,76
2019-03-22T06:34:03.565Z,76
2019-03-22T06:35:03.388Z,76
2019-03-22T06:36:03.322Z,76
2019-03-22T06:37:03.325Z,76
2019-03-22T06:38:03.243Z,76
2019-03-22T06:39:03.183Z,76
2019-03-22T06:40:03.520Z,76
2019-03-22T06:41:03.331Z,76
2019-03-22T06:42:03.492Z,76
2019-03-22T06:43:03.218Z,76
2019-03-22T06:44:03.347Z,76
2019-03-22T06:45:03.488Z,76
2019-03-22T06:46:03.206Z,75
2019-03-22T06:47:03.436Z,75
2019-03-22T06:48:03.053Z,75
2019-03-22T06:49:03.260Z,75
2019-03-22T06:50:03.285Z,75
2019-03-22T06:51:03.101Z,75
2019-03-22T06:52:02.780Z,75
2019-03-22T06:53:02.950Z,75
2019-03-22T06:54:03.077Z,75
2019-03-22T06:55:03.000Z,75
2019-03-22T06:56:02.987Z,75
2019-03-22T06:57:03.000Z,75
2019-03-22T06:58:03.217Z,75
2019-03-22T06:59:03.158Z,75
2019-03-22T07:00:07.693Z,75
2019-03-22T07:01:02.980Z,75
2019-03-22T07:02:03.436Z,75
2019-03-22T07:03:03.177Z,75
2019-03-22T07:04:03.267Z,75
2019-03-22T07:05:03.477Z,75
2019-03-22T07:06:03.041Z,75
2019-03-22T07:07:03.157Z,75
2019-03-22T07:08:03.123Z,74
2019-03-22T07:09:03.108Z,75
2019-03-22T07:10:03.073Z,75
2019-03-22T07:11:03.428Z,74
2019-03-22T07:12:02.974Z,74
2019-03-22T07:13:03.178Z,74
2019-03-22T07:14:03.120Z,74
2019-03-22T07:15:02.963Z,74
2019-03-22T07:16:03.459Z,74
2019-03-22T07:17:03.127Z,74
2019-03-22T07:18:02.979Z,74
2019-03-22T07:19:02.735Z,74
2019-03-22T07:20:03.204Z,74
2019-03-22T07:21:02.921Z,74
2019-03-22T07:22:03.152Z,74
2019-03-22T07:23:02.860Z,74
2019-03-22T07:24:03.396Z,74
2019-03-22T07:25:03.128Z,73
2019-03-22T07:26:03.033Z,73
2019-03-22T07:27:03.060Z,74
2019-03-22T07:28:02.881Z,74
2019-03-22T07:29:03.155Z,73
2019-03-22T07:30:03.936Z,73
2019-03-22T07:31:03.051Z,73
2019-03-22T07:32:03.104Z,73
2019-03-22T07:33:03.064Z,73
2019-03-22T07:34:02.850Z,73
2019-03-22T07:35:03.465Z,73
2019-03-22T07:36:02.811Z,73
2019-03-22T07:37:04.006Z,73
2019-03-22T07:38:02.976Z,72
2019-03-22T07:39:02.737Z,72
2019-03-22T07:40:02.995Z,72
2019-03-22T07:41:02.911Z,72
2019-03-22T07:42:02.967Z,72
2019-03-22T07:43:02.952Z,71
2019-03-22T07:44:03.610Z,71
2019-03-22T07:45:03.702Z,71
2019-03-22T07:46:03.768Z,71
2019-03-22T07:47:03.804Z,71
2019-03-22T07:48:03.023Z,71
2019-03-22T07:49:03.604Z,71
2019-03-22T07:50:03.819Z,70
2019-03-22T07:51:03.805Z,70
2019-03-22T07:52:03.565Z,70
2019-03-22T07:53:03.854Z,70
2019-03-22T07:54:04.053Z,70
2019-03-22T07:55:03.771Z,69
2019-03-22T07:56:03.396Z,69
2019-03-22T07:57:03.551Z,69
2019-03-22T07:58:03.376Z,69
2019-03-22T07:59:03.601Z,69
2019-03-22T08:00:03.385Z,69
2019-03-22T08:01:03.313Z,68
2019-03-22T08:02:03.714Z,68
2019-03-22T08:03:03.460Z,68
2019-03-22T08:04:03.213Z,68
2019-03-22T08:05:03.323Z,68
2019-03-22T08:06:03.474Z,68
2019-03-22T08:07:03.379Z,67
2019-03-22T08:08:03.766Z,67
2019-03-22T08:09:03.077Z,67
2019-03-22T08:10:03.328Z,67
2019-03-22T08:11:03.150Z,67
2019-03-22T08:12:03.019Z,67
2019-03-22T08:13:03.356Z,66
2019-03-22T08:14:03.588Z,66
2019-03-22T08:15:03.074Z,66
2019-03-22T08:16:03.257Z,66
2019-03-22T08:17:03.322Z,66
2019-03-22T08:18:02.866Z,66
2019-03-22T08:19:03.367Z,66
2019-03-22T08:20:03.230Z,66
2019-03-22T08:21:03.153Z,66
2019-03-22T08:22:03.126Z,66
2019-03-22T08:23:03.166Z,65
2019-03-22T08:24:03.123Z,65
2019-03-22T08:25:03.266Z,65
2019-03-22T08:26:02.966Z,65
2019-03-22T08:27:03.111Z,65
2019-03-22T08:28:02.953Z,64
2019-03-22T08:29:03.104Z,64
2019-03-22T08:30:03.666Z,64
2019-03-22T08:31:05.906Z,63
2019-03-22T08:32:03.026Z,63
2019-03-22T08:33:03.159Z,63
2019-03-22T08:34:03.239Z,63
2019-03-22T08:35:03.823Z,63
2019-03-22T08:36:02.947Z,63
2019-03-22T08:37:02.983Z,63
2019-03-22T08:38:02.911Z,62
2019-03-22T08:39:03.573Z,62
2019-03-22T08:40:03.109Z,62
2019-03-22T08:41:03.018Z,61
2019-03-22T08:42:03.079Z,61
2019-03-22T08:43:03.853Z,61
2019-03-22T08:44:04.086Z,62
2019-03-22T08:45:02.934Z,62
2019-03-22T08:46:03.911Z,62
2019-03-22T08:47:03.512Z,61
2019-03-22T08:48:03.878Z,60
2019-03-22T08:49:04.180Z,60
2019-03-22T08:50:03.762Z,60
2019-03-22T08:51:03.681Z,60
2019-03-22T08:52:03.668Z,60
2019-03-22T08:53:03.587Z,60
2019-03-22T08:54:03.657Z,59
2019-03-22T08:55:03.005Z,59
2019-03-22T08:56:03.624Z,59
2019-03-22T08:57:03.963Z,58
2019-03-22T08:58:03.698Z,58
2019-03-22T08:59:03.816Z,58
2019-03-22T09:00:03.835Z,58
2019-03-22T09:01:03.759Z,58
2019-03-22T09:02:03.691Z,58
2019-03-22T09:03:03.294Z,58
2019-03-22T09:04:03.587Z,57
2019-03-22T09:05:03.784Z,57
2019-03-22T09:06:03.500Z,57
2019-03-22T09:07:03.380Z,57
2019-03-22T09:08:03.831Z,56
2019-03-22T09:09:03.488Z,56
2019-03-22T09:10:03.744Z,56
2019-03-22T09:11:03.752Z,56
2019-03-22T09:12:03.733Z,56
2019-03-22T09:13:03.576Z,56
2019-03-22T09:14:03.588Z,55
2019-03-22T09:15:03.589Z,55
2019-03-22T09:16:03.703Z,55
2019-03-22T09:17:03.396Z,55
2019-03-22T09:18:03.493Z,55
2019-03-22T09:19:03.219Z,55
2019-03-22T09:20:03.463Z,53
2019-03-22T09:21:03.256Z,53
2019-03-22T09:22:03.118Z,53
2019-03-22T09:23:03.498Z,53
2019-03-22T09:24:03.320Z,53
2019-03-22T09:25:03.522Z,53
2019-03-22T09:26:03.606Z,52
2019-03-22T09:27:03.592Z,52
2019-03-22T09:28:03.216Z,52
2019-03-22T09:29:03.316Z,52
2019-03-22T09:30:03.475Z,52
2019-03-22T09:31:12.031Z,52
2019-03-22T09:32:03.491Z,52
2019-03-22T09:33:03.320Z,52
2019-03-22T09:34:03.436Z,52
2019-03-22T09:35:03.258Z,52
2019-03-22T09:36:03.510Z,52
2019-03-22T09:37:03.378Z,52
2019-03-22T09:38:13.779Z,52
2019-03-22T09:39:03.451Z,52
2019-03-22T09:40:03.167Z,52
2019-03-22T09:41:03.561Z,51
2019-03-22T09:42:03.165Z,51
2019-03-22T09:43:03.405Z,51
2019-03-22T09:44:03.511Z,51
2019-03-22T09:45:03.547Z,51
2019-03-22T09:46:03.388Z,51
2019-03-22T09:47:03.498Z,51
2019-03-22T09:48:06.569Z,51
2019-03-22T09:49:03.521Z,51
2019-03-22T09:50:03.185Z,51
2019-03-22T09:51:02.978Z,51
2019-03-22T09:52:03.371Z,51
2019-03-22T09:53:03.383Z,51
2019-03-22T09:54:03.290Z,51
2019-03-22T09:55:14.865Z,51
2019-03-22T09:56:03.434Z,51
2019-03-22T09:57:03.328Z,50
2019-03-22T09:58:03.454Z,50
2019-03-22T09:59:03.478Z,50
2019-03-22T10:00:03.573Z,50
2019-03-22T10:01:02.108Z,50
2019-03-22T10:02:04.713Z,50
2019-03-22T10:03:03.249Z,49
2019-03-22T10:04:02.953Z,49
2019-03-22T10:05:03.415Z,49
2019-03-22T10:06:03.670Z,49
2019-03-22T10:07:03.234Z,47
2019-03-22T10:08:03.375Z,47
2019-03-22T10:09:06.025Z,46
2019-03-22T10:10:03.223Z,46
2019-03-22T10:11:03.637Z,46
2019-03-22T10:12:03.350Z,46
2019-03-22T10:13:03.595Z,46
2019-03-22T10:14:02.858Z,47
2019-03-22T10:15:03.549Z,47
2019-03-22T10:16:03.775Z,47
2019-03-22T10:17:03.465Z,47
2019-03-22T10:18:03.112Z,47
2019-03-22T10:19:03.975Z,46
2019-03-22T10:20:02.809Z,47
2019-03-22T10:21:03.245Z,47
2019-03-22T10:22:03.225Z,47
2019-03-22T10:23:03.158Z,45
2019-03-22T10:24:03.531Z,45
2019-03-22T10:25:03.063Z,46
2019-03-22T10:26:03.220Z,46
2019-03-22T10:27:05.706Z,46
2019-03-22T10:28:03.230Z,46
2019-03-22T10:29:03.189Z,46
2019-03-22T10:30:03.292Z,45
2019-03-22T10:31:03.004Z,45
2019-03-22T10:32:03.649Z,45
2019-03-22T10:33:03.074Z,45
2019-03-22T10:34:03.904Z,45
2019-03-22T10:35:03.302Z,45
2019-03-22T10:36:02.923Z,45
2019-03-22T10:37:02.955Z,46
2019-03-22T10:38:26.354Z,46
2019-03-22T10:39:03.766Z,45
2019-03-22T10:40:03.093Z,45
2019-03-22T10:41:03.526Z,45
2019-03-22T10:42:03.929Z,45
2019-03-22T10:43:03.221Z,45
2019-03-22T10:44:03.628Z,45
2019-03-22T10:45:03.465Z,44
2019-03-22T10:46:03.175Z,44
2019-03-22T10:47:03.295Z,44
2019-03-22T10:48:03.165Z,44
2019-03-22T10:49:02.932Z,44
2019-03-22T10:50:03.859Z,44
2019-03-22T10:51:03.556Z,45
2019-03-22T10:52:05.069Z,45
2019-03-22T10:53:03.215Z,45
2019-03-22T10:54:03.891Z,45
2019-03-22T10:55:30.932Z,46
2019-03-22T10:56:03.003Z,46
2019-03-22T10:57:03.576Z,46
2019-03-22T10:58:03.138Z,45
2019-03-22T10:59:03.290Z,45
2019-03-22T11:00:03.020Z,45
2019-03-22T11:01:02.914Z,45
2019-03-22T11:02:08.068Z,45
2019-03-22T11:03:03.093Z,45
2019-03-22T11:05:03.096Z,45
2019-03-22T11:06:03.815Z,45
2019-03-22T11:07:02.924Z,45
2019-03-22T11:08:03.196Z,45
2019-03-22T11:09:03.443Z,45
2019-03-22T11:10:03.125Z,45
2019-03-22T11:11:03.571Z,45
2019-03-22T11:12:12.903Z,45
2019-03-22T11:13:03.260Z,45
2019-03-22T11:14:03.018Z,45
2019-03-22T11:15:02.828Z,45
2019-03-22T11:16:03.469Z,45
2019-03-22T11:17:03.527Z,44
2019-03-22T11:18:03.482Z,44
2019-03-22T11:19:03.231Z,44
2019-03-22T11:20:03.793Z,44
2019-03-22T11:21:05.923Z,44
2019-03-22T11:22:02.896Z,43
2019-03-22T11:23:02.911Z,43
2019-03-22T11:24:03.641Z,43
2019-03-22T11:25:05.110Z,43
2019-03-22T11:26:04.784Z,43
2019-03-22T11:27:03.567Z,43
2019-03-22T11:28:03.717Z,43
2019-03-22T11:29:03.788Z,43
2019-03-22T11:30:03.728Z,43
2019-03-22T11:31:05.383Z,43
2019-03-22T11:32:13.187Z,43
2019-03-22T11:33:03.508Z,43
2019-03-22T11:34:03.287Z,42
2019-03-22T11:35:03.439Z,42
2019-03-22T11:36:03.428Z,41
2019-03-22T11:37:03.456Z,41
2019-03-22T11:38:03.245Z,43
2019-03-22T11:39:03.573Z,43
2019-03-22T11:40:03.422Z,41
2019-03-22T11:41:03.339Z,41
2019-03-22T11:42:03.023Z,41
2019-03-22T11:43:09.286Z,42
2019-03-22T11:44:03.651Z,43
2019-03-22T11:45:03.704Z,43
2019-03-22T11:46:03.267Z,43
2019-03-22T11:47:03.308Z,42
2019-03-22T11:48:03.296Z,42
2019-03-22T11:49:03.443Z,41
2019-03-22T11:50:03.491Z,41
2019-03-22T11:51:03.357Z,41
2019-03-22T11:52:03.143Z,41
2019-03-22T11:53:03.095Z,41
2019-03-22T11:54:03.078Z,41
2019-03-22T11:55:02.879Z,41
2019-03-22T11:56:03.217Z,42
2019-03-22T11:57:02.883Z,42
2019-03-22T11:58:03.280Z,42
2019-03-22T11:59:03.150Z,42
2019-03-22T12:00:03.572Z,42
2019-03-22T12:01:03.056Z,43
2019-03-22T12:02:03.334Z,42
2019-03-22T12:03:03.239Z,42
2019-03-22T12:04:03.317Z,42
2019-03-22T12:05:03.391Z,42
2019-03-22T12:06:02.951Z,42
2019-03-22T12:07:03.052Z,42
2019-03-22T12:08:02.990Z,41
2019-03-22T12:09:02.964Z,41
2019-03-22T12:10:03.074Z,41
2019-03-22T12:11:03.391Z,41
2019-03-22T12:12:03.303Z,41
2019-03-22T12:13:03.056Z,40
2019-03-22T12:14:03.111Z,41
2019-03-22T12:15:03.334Z,41
2019-03-22T12:16:03.096Z,41
2019-03-22T12:17:02.915Z,41
2019-03-22T12:18:03.774Z,41
2019-03-22T12:19:03.043Z,41
2019-03-22T12:20:02.975Z,41
2019-03-22T12:21:03.050Z,41
2019-03-22T12:22:03.013Z,41
2019-03-22T12:23:02.884Z,42
2019-03-22T12:24:02.948Z,42
2019-03-22T12:25:03.985Z,42
2019-03-22T12:26:03.564Z,42
2019-03-22T12:27:02.964Z,41
2019-03-22T12:28:03.186Z,41
2019-03-22T12:29:02.926Z,41
2019-03-22T12:30:03.073Z,41
2019-03-22T12:31:02.935Z,41
2019-03-22T12:32:03.281Z,41
2019-03-22T12:33:03.057Z,41
2019-03-22T12:34:04.466Z,41
2019-03-22T12:35:03.092Z,41
2019-03-22T12:36:02.992Z,41
2019-03-22T12:37:03.867Z,40
2019-03-22T12:38:02.873Z,40
2019-03-22T12:39:02.893Z,41
2019-03-22T12:40:03.933Z,41
2019-03-22T12:41:02.770Z,41
2019-03-22T12:42:03.120Z,41
2019-03-22T12:43:03.333Z,41
2019-03-22T12:44:03.092Z,42
2019-03-22T12:45:03.118Z,40
2019-03-22T12:46:03.364Z,41
2019-03-22T12:47:03.016Z,41
2019-03-22T12:48:03.050Z,41
2019-03-22T12:49:03.286Z,41
2019-03-22T12:50:02.822Z,40
2019-03-22T12:51:02.924Z,40
2019-03-22T12:52:03.090Z,41
2019-03-22T12:53:02.737Z,41
2019-03-22T12:54:03.036Z,41
2019-03-22T12:55:03.618Z,41
2019-03-22T12:56:03.188Z,41
2019-03-22T12:57:03.809Z,41
2019-03-22T12:58:03.042Z,41
2019-03-22T12:59:03.254Z,40
2019-03-22T13:00:03.017Z,40
2019-03-22T13:01:02.979Z,41
2019-03-22T13:02:03.147Z,40
2019-03-22T13:03:02.801Z,40
2019-03-22T13:04:02.854Z,40
2019-03-22T13:05:02.842Z,41
2019-03-22T13:06:02.827Z,41
2019-03-22T13:07:02.846Z,41
2019-03-22T13:08:03.571Z,40
2019-03-22T13:09:03.105Z,40
2019-03-22T13:10:03.852Z,40
2019-03-22T13:11:03.779Z,41
2019-03-22T13:12:03.698Z,41
2019-03-22T13:13:03.079Z,41
2019-03-22T13:14:03.717Z,41
2019-03-22T13:15:02.931Z,41
2019-03-22T13:16:03.234Z,41
2019-03-22T13:17:03.483Z,41
2019-03-22T13:18:03.175Z,41
2019-03-22T13:19:03.337Z,41
2019-03-22T13:20:03.276Z,41
2019-03-22T13:21:03.174Z,41
2019-03-22T13:22:03.563Z,41
2019-03-22T13:23:03.345Z,41
2019-03-22T13:24:03.343Z,41
2019-03-22T13:25:03.029Z,41
2019-03-22T13:26:03.282Z,41
2019-03-22T13:27:03.052Z,41
2019-03-22T13:28:02.925Z,41
2019-03-22T13:29:03.195Z,41
2019-03-22T13:30:03.461Z,41
2019-03-22T13:31:02.990Z,41
2019-03-22T13:32:03.099Z,41
2019-03-22T13:33:02.993Z,41
2019-03-22T13:34:02.961Z,41
2019-03-22T13:35:03.015Z,41
2019-03-22T13:36:02.964Z,41
2019-03-22T13:37:03.122Z,40
2019-03-22T13:38:03.016Z,40
2019-03-22T13:39:03.864Z,40
2019-03-22T13:40:03.921Z,41
2019-03-22T13:41:02.956Z,41
2019-03-22T13:42:03.629Z,41
2019-03-22T13:43:02.719Z,41
2019-03-22T13:44:02.768Z,41
2019-03-22T13:45:03.893Z,41
2019-03-22T13:46:03.558Z,41
2019-03-22T13:47:02.635Z,41
2019-03-22T13:48:03.991Z,41
2019-03-22T13:49:03.504Z,41
2019-03-22T13:50:03.874Z,42
2019-03-22T13:51:03.514Z,41
2019-03-22T13:52:03.498Z,41
2019-03-22T13:53:03.697Z,42
2019-03-22T13:54:03.718Z,42
2019-03-22T13:55:03.527Z,42
2019-03-22T13:56:03.453Z,42
2019-03-22T13:57:03.767Z,42
2019-03-22T13:58:03.502Z,42
2019-03-22T13:59:03.270Z,42
2019-03-22T14:00:03.582Z,42
2019-03-22T14:01:03.826Z,42
2019-03-22T14:02:03.309Z,42
2019-03-22T14:03:03.872Z,42
2019-03-22T14:04:03.790Z,42
2019-03-22T14:05:03.613Z,42
2019-03-22T14:06:03.344Z,42
2019-03-22T14:07:03.474Z,42
2019-03-22T14:08:03.561Z,42
2019-03-22T14:09:03.508Z,42
2019-03-22T14:10:03.285Z,42
2019-03-22T14:11:03.200Z,42
2019-03-22T14:12:03.503Z,42
2019-03-22T14:13:03.770Z,42
2019-03-22T14:14:03.136Z,42
2019-03-22T14:15:03.345Z,42
2019-03-22T14:16:03.548Z,42